sensor_id;sensor_type;location;lat;lon;timestamp;temperature;humidity
47590;DHT22;33316;52.298;9.056;2024-01-07T00:01:49;1.10;99.90
47590;DHT22;33316;52.298;9.056;2024-01-07T00:04:18;1.10;99.90
47590;DHT22;33316;52.298;9.056;2024-01-07T00:06:46;1.10;99.90
47590;DHT22;33316;52.298;9.056;2024-01-07T00:09:14;1.00;99.90
47590;DHT22;33316;52.298;9.056;2024-01-07T00:11:41;1.00;99.90
47590;DHT22;33316;52.298;9.056;2024-01-07T00:14:08;1.00;99.90
47590;DHT22;33316;52.298;9.056;2024-01-07T00:16:35;1.00;99.90
47590;DHT22;33316;52.298;9.056;2024-01-07T00:19:02;1.00;99.90
47590;DHT22;33316;52.298;9.056;2024-01-07T00:21:31;1.00;99.90
47590;DHT22;33316;52.298;9.056;2024-01-07T00:23:58;1.00;99.90
47590;DHT22;33316;52.298;9.056;2024-01-07T00:26:28;1.10;99.90
47590;DHT22;33316;52.298;9.056;2024-01-07T00:28:57;1.00;99.90
47590;DHT22;33316;52.298;9.056;2024-01-07T00:31:27;1.00;99.90
47590;DHT22;33316;52.298;9.056;2024-01-07T00:34:00;1.00;99.90
47590;DHT22;33316;52.298;9.056;2024-01-07T00:36:27;1.00;99.90
47590;DHT22;33316;52.298;9.056;2024-01-07T00:38:57;1.00;99.90
47590;DHT22;33316;52.298;9.056;2024-01-07T00:41:25;0.90;99.90
47590;DHT22;33316;52.298;9.056;2024-01-07T00:43:56;0.90;99.90
47590;DHT22;33316;52.298;9.056;2024-01-07T00:46:30;1.00;99.90
47590;DHT22;33316;52.298;9.056;2024-01-07T00:49:00;0.90;99.90
47590;DHT22;33316;52.298;9.056;2024-01-07T00:51:28;1.00;99.90
47590;DHT22;33316;52.298;9.056;2024-01-07T00:53:56;0.90;99.90
47590;DHT22;33316;52.298;9.056;2024-01-07T00:56:27;0.90;99.90
47590;DHT22;33316;52.298;9.056;2024-01-07T00:58:54;0.90;99.90
47590;DHT22;33316;52.298;9.056;2024-01-07T01:01:21;0.90;99.90
47590;DHT22;33316;52.298;9.056;2024-01-07T01:03:51;0.90;99.90
47590;DHT22;33316;52.298;9.056;2024-01-07T01:06:19;0.90;99.90
47590;DHT22;33316;52.298;9.056;2024-01-07T01:08:48;0.90;99.90
47590;DHT22;33316;52.298;9.056;2024-01-07T01:11:16;0.90;99.90
47590;DHT22;33316;52.298;9.056;2024-01-07T01:13:44;0.90;99.90
47590;DHT22;33316;52.298;9.056;2024-01-07T01:16:11;0.90;99.90
47590;DHT22;33316;52.298;9.056;2024-01-07T01:18:40;0.90;99.90
47590;DHT22;33316;52.298;9.056;2024-01-07T01:21:08;0.90;99.90
47590;DHT22;33316;52.298;9.056;2024-01-07T01:23:36;0.90;99.90
47590;DHT22;33316;52.298;9.056;2024-01-07T01:26:05;0.90;99.90
47590;DHT22;33316;52.298;9.056;2024-01-07T01:28:32;0.90;99.90
47590;DHT22;33316;52.298;9.056;2024-01-07T01:31:01;0.90;99.90
47590;DHT22;33316;52.298;9.056;2024-01-07T01:33:30;0.90;99.90
47590;DHT22;33316;52.298;9.056;2024-01-07T01:35:57;0.80;99.90
47590;DHT22;33316;52.298;9.056;2024-01-07T01:38:25;0.80;99.90
47590;DHT22;33316;52.298;9.056;2024-01-07T01:40:55;0.80;99.90
47590;DHT22;33316;52.298;9.056;2024-01-07T01:43:23;0.80;99.90
47590;DHT22;33316;52.298;9.056;2024-01-07T01:45:51;0.80;99.90
47590;DHT22;33316;52.298;9.056;2024-01-07T01:48:19;0.80;99.90
47590;DHT22;33316;52.298;9.056;2024-01-07T01:50:47;0.80;99.90
47590;DHT22;33316;52.298;9.056;2024-01-07T01:53:14;0.80;99.90
47590;DHT22;33316;52.298;9.056;2024-01-07T01:55:44;0.80;99.90
47590;DHT22;33316;52.298;9.056;2024-01-07T01:58:14;0.70;99.90
47590;DHT22;33316;52.298;9.056;2024-01-07T02:00:44;0.70;99.90
47590;DHT22;33316;52.298;9.056;2024-01-07T02:03:15;0.70;99.90
47590;DHT22;33316;52.298;9.056;2024-01-07T02:05:44;0.70;99.90
47590;DHT22;33316;52.298;9.056;2024-01-07T02:08:20;0.60;99.90
47590;DHT22;33316;52.298;9.056;2024-01-07T02:10:48;0.60;99.90
47590;DHT22;33316;52.298;9.056;2024-01-07T02:13:18;0.60;99.90
47590;DHT22;33316;52.298;9.056;2024-01-07T02:15:45;0.60;99.90
47590;DHT22;33316;52.298;9.056;2024-01-07T02:18:12;0.60;99.90
47590;DHT22;33316;52.298;9.056;2024-01-07T02:20:46;0.60;99.90
47590;DHT22;33316;52.298;9.056;2024-01-07T02:23:13;0.50;99.90
47590;DHT22;33316;52.298;9.056;2024-01-07T02:25:42;0.50;99.90
47590;DHT22;33316;52.298;9.056;2024-01-07T02:28:09;0.50;99.90
47590;DHT22;33316;52.298;9.056;2024-01-07T02:30:36;0.50;99.90
47590;DHT22;33316;52.298;9.056;2024-01-07T02:33:06;0.40;99.90
47590;DHT22;33316;52.298;9.056;2024-01-07T02:35:33;0.40;99.90
47590;DHT22;33316;52.298;9.056;2024-01-07T02:38:01;0.40;99.90
47590;DHT22;33316;52.298;9.056;2024-01-07T02:40:28;0.50;99.90
47590;DHT22;33316;52.298;9.056;2024-01-07T02:42:57;0.40;99.90
47590;DHT22;33316;52.298;9.056;2024-01-07T02:45:25;0.50;99.90
47590;DHT22;33316;52.298;9.056;2024-01-07T02:47:52;0.50;99.90
47590;DHT22;33316;52.298;9.056;2024-01-07T02:50:20;0.50;99.90
47590;DHT22;33316;52.298;9.056;2024-01-07T02:52:47;0.50;99.90
47590;DHT22;33316;52.298;9.056;2024-01-07T02:55:14;0.50;99.90
47590;DHT22;33316;52.298;9.056;2024-01-07T02:57:42;0.50;99.90
47590;DHT22;33316;52.298;9.056;2024-01-07T03:00:11;0.50;99.90
47590;DHT22;33316;52.298;9.056;2024-01-07T03:02:39;0.50;99.90
47590;DHT22;33316;52.298;9.056;2024-01-07T03:05:06;0.40;99.90
47590;DHT22;33316;52.298;9.056;2024-01-07T03:07:33;0.40;99.90
47590;DHT22;33316;52.298;9.056;2024-01-07T03:10:00;0.40;99.90
47590;DHT22;33316;52.298;9.056;2024-01-07T03:12:27;0.40;99.90
47590;DHT22;33316;52.298;9.056;2024-01-07T03:14:54;0.30;99.90
47590;DHT22;33316;52.298;9.056;2024-01-07T03:17:22;0.30;99.90
47590;DHT22;33316;52.298;9.056;2024-01-07T03:19:50;0.30;99.90
47590;DHT22;33316;52.298;9.056;2024-01-07T03:22:17;0.30;99.90
47590;DHT22;33316;52.298;9.056;2024-01-07T03:24:44;0.20;99.90
47590;DHT22;33316;52.298;9.056;2024-01-07T03:27:11;0.20;99.90
47590;DHT22;33316;52.298;9.056;2024-01-07T03:29:39;0.20;99.90
47590;DHT22;33316;52.298;9.056;2024-01-07T03:32:07;0.20;99.90
47590;DHT22;33316;52.298;9.056;2024-01-07T03:34:35;0.20;99.90
47590;DHT22;33316;52.298;9.056;2024-01-07T03:37:03;0.20;99.90
47590;DHT22;33316;52.298;9.056;2024-01-07T03:39:32;0.20;99.90
47590;DHT22;33316;52.298;9.056;2024-01-07T03:42:00;0.20;99.90
47590;DHT22;33316;52.298;9.056;2024-01-07T03:44:27;0.20;99.90
47590;DHT22;33316;52.298;9.056;2024-01-07T03:46:55;0.20;99.90
47590;DHT22;33316;52.298;9.056;2024-01-07T03:49:23;0.20;99.90
47590;DHT22;33316;52.298;9.056;2024-01-07T03:51:52;0.20;99.90
47590;DHT22;33316;52.298;9.056;2024-01-07T03:54:19;0.10;99.90
47590;DHT22;33316;52.298;9.056;2024-01-07T03:56:46;0.20;99.90
47590;DHT22;33316;52.298;9.056;2024-01-07T03:59:13;0.10;99.90
47590;DHT22;33316;52.298;9.056;2024-01-07T04:01:40;0.10;99.90
47590;DHT22;33316;52.298;9.056;2024-01-07T04:04:07;0.20;99.90
47590;DHT22;33316;52.298;9.056;2024-01-07T04:06:36;0.20;99.90
47590;DHT22;33316;52.298;9.056;2024-01-07T04:09:05;0.20;99.90
47590;DHT22;33316;52.298;9.056;2024-01-07T04:11:39;0.20;99.90
47590;DHT22;33316;52.298;9.056;2024-01-07T04:14:07;0.20;99.90
47590;DHT22;33316;52.298;9.056;2024-01-07T04:16:36;0.20;99.90
47590;DHT22;33316;52.298;9.056;2024-01-07T04:19:04;0.20;99.90
47590;DHT22;33316;52.298;9.056;2024-01-07T04:21:32;0.10;99.90
47590;DHT22;33316;52.298;9.056;2024-01-07T04:24:01;0.10;99.90
47590;DHT22;33316;52.298;9.056;2024-01-07T04:26:29;0.10;99.90
47590;DHT22;33316;52.298;9.056;2024-01-07T04:28:56;0.10;99.90
47590;DHT22;33316;52.298;9.056;2024-01-07T04:31:23;0.00;99.90
47590;DHT22;33316;52.298;9.056;2024-01-07T04:33:50;0.00;99.90
47590;DHT22;33316;52.298;9.056;2024-01-07T04:36:17;0.00;99.90
47590;DHT22;33316;52.298;9.056;2024-01-07T04:38:44;0.00;99.90
47590;DHT22;33316;52.298;9.056;2024-01-07T04:41:13;0.00;99.90
47590;DHT22;33316;52.298;9.056;2024-01-07T04:43:44;0.00;99.90
47590;DHT22;33316;52.298;9.056;2024-01-07T04:46:11;0.00;99.90
47590;DHT22;33316;52.298;9.056;2024-01-07T04:48:38;0.00;99.90
47590;DHT22;33316;52.298;9.056;2024-01-07T04:51:06;-0.10;99.90
47590;DHT22;33316;52.298;9.056;2024-01-07T04:53:33;-0.10;99.90
47590;DHT22;33316;52.298;9.056;2024-01-07T04:56:01;-0.10;99.90
47590;DHT22;33316;52.298;9.056;2024-01-07T04:58:29;-0.10;99.90
47590;DHT22;33316;52.298;9.056;2024-01-07T05:00:57;-0.20;99.90
47590;DHT22;33316;52.298;9.056;2024-01-07T05:03:24;-0.20;99.90
47590;DHT22;33316;52.298;9.056;2024-01-07T05:05:51;-0.20;99.90
47590;DHT22;33316;52.298;9.056;2024-01-07T05:08:19;-0.20;99.90
47590;DHT22;33316;52.298;9.056;2024-01-07T05:10:46;-0.30;99.90
47590;DHT22;33316;52.298;9.056;2024-01-07T05:13:13;-0.30;99.90
47590;DHT22;33316;52.298;9.056;2024-01-07T05:15:40;-0.30;99.90
47590;DHT22;33316;52.298;9.056;2024-01-07T05:18:08;-0.30;99.90
47590;DHT22;33316;52.298;9.056;2024-01-07T05:20:39;-0.30;99.90
47590;DHT22;33316;52.298;9.056;2024-01-07T05:23:06;-0.30;99.90
47590;DHT22;33316;52.298;9.056;2024-01-07T05:25:33;-0.30;99.90
47590;DHT22;33316;52.298;9.056;2024-01-07T05:28:00;-0.30;99.90
47590;DHT22;33316;52.298;9.056;2024-01-07T05:30:27;-0.30;99.90
47590;DHT22;33316;52.298;9.056;2024-01-07T05:32:57;-0.30;99.90
47590;DHT22;33316;52.298;9.056;2024-01-07T05:35:27;-0.30;99.90
47590;DHT22;33316;52.298;9.056;2024-01-07T05:37:54;-0.30;99.90
47590;DHT22;33316;52.298;9.056;2024-01-07T05:40:21;-0.20;99.90
47590;DHT22;33316;52.298;9.056;2024-01-07T05:42:48;-0.20;99.90
47590;DHT22;33316;52.298;9.056;2024-01-07T05:45:15;-0.30;99.90
47590;DHT22;33316;52.298;9.056;2024-01-07T05:47:42;-0.20;99.90
47590;DHT22;33316;52.298;9.056;2024-01-07T05:50:09;-0.20;99.90
47590;DHT22;33316;52.298;9.056;2024-01-07T05:52:48;-0.20;99.90
47590;DHT22;33316;52.298;9.056;2024-01-07T05:55:18;-0.20;99.90
47590;DHT22;33316;52.298;9.056;2024-01-07T05:57:48;-0.20;99.90
47590;DHT22;33316;52.298;9.056;2024-01-07T06:00:16;-0.20;99.90
47590;DHT22;33316;52.298;9.056;2024-01-07T06:02:44;-0.20;99.90
47590;DHT22;33316;52.298;9.056;2024-01-07T06:05:13;-0.20;99.90
47590;DHT22;33316;52.298;9.056;2024-01-07T06:07:41;-0.10;99.90
47590;DHT22;33316;52.298;9.056;2024-01-07T06:10:11;-0.10;99.90
47590;DHT22;33316;52.298;9.056;2024-01-07T06:12:38;-0.20;99.90
47590;DHT22;33316;52.298;9.056;2024-01-07T06:15:08;-0.20;99.90
47590;DHT22;33316;52.298;9.056;2024-01-07T06:17:35;-0.20;99.90
47590;DHT22;33316;52.298;9.056;2024-01-07T06:20:03;-0.20;99.90
47590;DHT22;33316;52.298;9.056;2024-01-07T06:22:32;-0.30;99.90
47590;DHT22;33316;52.298;9.056;2024-01-07T06:24:59;-0.30;99.90
47590;DHT22;33316;52.298;9.056;2024-01-07T06:27:28;-0.30;99.90
47590;DHT22;33316;52.298;9.056;2024-01-07T06:29:55;-0.30;99.90
47590;DHT22;33316;52.298;9.056;2024-01-07T06:32:22;-0.30;99.90
47590;DHT22;33316;52.298;9.056;2024-01-07T06:34:50;-0.30;99.90
47590;DHT22;33316;52.298;9.056;2024-01-07T06:37:18;-0.30;99.90
47590;DHT22;33316;52.298;9.056;2024-01-07T06:39:46;-0.30;99.90
47590;DHT22;33316;52.298;9.056;2024-01-07T06:42:13;-0.30;99.90
47590;DHT22;33316;52.298;9.056;2024-01-07T06:44:41;-0.30;99.90
47590;DHT22;33316;52.298;9.056;2024-01-07T06:47:08;-0.30;99.90
47590;DHT22;33316;52.298;9.056;2024-01-07T06:49:35;-0.30;99.90
47590;DHT22;33316;52.298;9.056;2024-01-07T06:52:03;-0.30;99.90
47590;DHT22;33316;52.298;9.056;2024-01-07T06:54:31;-0.30;99.90
47590;DHT22;33316;52.298;9.056;2024-01-07T06:56:59;-0.30;99.90
47590;DHT22;33316;52.298;9.056;2024-01-07T06:59:26;-0.30;99.90
47590;DHT22;33316;52.298;9.056;2024-01-07T07:01:57;-0.30;99.90
47590;DHT22;33316;52.298;9.056;2024-01-07T07:04:25;-0.30;99.90
47590;DHT22;33316;52.298;9.056;2024-01-07T07:06:51;-0.30;99.90
47590;DHT22;33316;52.298;9.056;2024-01-07T07:09:19;-0.40;99.90
47590;DHT22;33316;52.298;9.056;2024-01-07T07:11:46;-0.40;99.90
47590;DHT22;33316;52.298;9.056;2024-01-07T07:14:13;-0.40;99.90
47590;DHT22;33316;52.298;9.056;2024-01-07T07:16:56;-0.40;99.90
47590;DHT22;33316;52.298;9.056;2024-01-07T07:19:24;-0.40;99.90
47590;DHT22;33316;52.298;9.056;2024-01-07T07:21:52;-0.50;99.90
47590;DHT22;33316;52.298;9.056;2024-01-07T07:24:22;-0.40;99.90
47590;DHT22;33316;52.298;9.056;2024-01-07T07:26:49;-0.50;99.90
47590;DHT22;33316;52.298;9.056;2024-01-07T07:29:18;-0.50;99.90
47590;DHT22;33316;52.298;9.056;2024-01-07T07:31:48;-0.50;99.90
47590;DHT22;33316;52.298;9.056;2024-01-07T07:34:18;-0.50;99.90
47590;DHT22;33316;52.298;9.056;2024-01-07T07:36:47;-0.50;99.90
47590;DHT22;33316;52.298;9.056;2024-01-07T07:39:14;-0.60;99.90
47590;DHT22;33316;52.298;9.056;2024-01-07T07:41:41;-0.60;99.90
47590;DHT22;33316;52.298;9.056;2024-01-07T07:44:12;-0.60;99.90
47590;DHT22;33316;52.298;9.056;2024-01-07T07:46:39;-0.60;99.90
47590;DHT22;33316;52.298;9.056;2024-01-07T07:49:08;-0.60;99.90
47590;DHT22;33316;52.298;9.056;2024-01-07T07:51:39;-0.60;99.90
47590;DHT22;33316;52.298;9.056;2024-01-07T07:54:12;-0.60;99.90
47590;DHT22;33316;52.298;9.056;2024-01-07T07:56:43;-0.60;99.90
47590;DHT22;33316;52.298;9.056;2024-01-07T07:59:11;-0.60;99.90
47590;DHT22;33316;52.298;9.056;2024-01-07T08:01:38;-0.60;99.90
47590;DHT22;33316;52.298;9.056;2024-01-07T08:04:05;-0.70;99.90
47590;DHT22;33316;52.298;9.056;2024-01-07T08:06:33;-0.70;99.90
47590;DHT22;33316;52.298;9.056;2024-01-07T08:09:06;-0.70;99.90
47590;DHT22;33316;52.298;9.056;2024-01-07T08:11:33;-0.70;99.90
47590;DHT22;33316;52.298;9.056;2024-01-07T08:14:01;-0.70;99.90
47590;DHT22;33316;52.298;9.056;2024-01-07T08:16:29;-0.70;99.90
47590;DHT22;33316;52.298;9.056;2024-01-07T08:18:57;-0.70;99.90
47590;DHT22;33316;52.298;9.056;2024-01-07T08:21:25;-0.70;99.90
47590;DHT22;33316;52.298;9.056;2024-01-07T08:23:53;-0.70;99.90
47590;DHT22;33316;52.298;9.056;2024-01-07T08:26:21;-0.70;99.90
47590;DHT22;33316;52.298;9.056;2024-01-07T08:28:49;-0.70;99.90
47590;DHT22;33316;52.298;9.056;2024-01-07T08:31:18;-0.70;99.90
47590;DHT22;33316;52.298;9.056;2024-01-07T08:33:45;-0.70;99.90
47590;DHT22;33316;52.298;9.056;2024-01-07T08:36:13;-0.70;99.90
47590;DHT22;33316;52.298;9.056;2024-01-07T08:38:40;-0.70;99.90
47590;DHT22;33316;52.298;9.056;2024-01-07T08:41:07;-0.70;99.90
47590;DHT22;33316;52.298;9.056;2024-01-07T08:43:36;-0.70;99.90
47590;DHT22;33316;52.298;9.056;2024-01-07T08:46:04;-0.70;99.90
47590;DHT22;33316;52.298;9.056;2024-01-07T08:48:31;-0.70;99.90
47590;DHT22;33316;52.298;9.056;2024-01-07T08:50:58;-0.70;99.90
47590;DHT22;33316;52.298;9.056;2024-01-07T08:53:25;-0.70;99.90
47590;DHT22;33316;52.298;9.056;2024-01-07T08:55:52;-0.70;99.90
47590;DHT22;33316;52.298;9.056;2024-01-07T08:58:20;-0.70;99.90
47590;DHT22;33316;52.298;9.056;2024-01-07T09:00:48;-0.70;99.90
47590;DHT22;33316;52.298;9.056;2024-01-07T09:03:17;-0.70;99.90
47590;DHT22;33316;52.298;9.056;2024-01-07T09:05:46;-0.70;99.90
47590;DHT22;33316;52.298;9.056;2024-01-07T09:08:13;-0.70;99.90
47590;DHT22;33316;52.298;9.056;2024-01-07T09:10:42;-0.70;99.90
47590;DHT22;33316;52.298;9.056;2024-01-07T09:13:12;-0.70;99.90
47590;DHT22;33316;52.298;9.056;2024-01-07T09:15:40;-0.70;99.90
47590;DHT22;33316;52.298;9.056;2024-01-07T09:18:11;-0.70;99.90
47590;DHT22;33316;52.298;9.056;2024-01-07T09:20:46;-0.60;99.90
47590;DHT22;33316;52.298;9.056;2024-01-07T09:23:16;-0.70;99.90
47590;DHT22;33316;52.298;9.056;2024-01-07T09:25:43;-0.70;99.90
47590;DHT22;33316;52.298;9.056;2024-01-07T09:28:14;-0.60;99.90
47590;DHT22;33316;52.298;9.056;2024-01-07T09:30:41;-0.70;99.90
47590;DHT22;33316;52.298;9.056;2024-01-07T09:33:10;-0.60;99.90
47590;DHT22;33316;52.298;9.056;2024-01-07T09:35:37;-0.60;99.90
47590;DHT22;33316;52.298;9.056;2024-01-07T09:38:06;-0.60;99.90
47590;DHT22;33316;52.298;9.056;2024-01-07T09:40:32;-0.60;99.90
47590;DHT22;33316;52.298;9.056;2024-01-07T09:43:01;-0.60;99.90
47590;DHT22;33316;52.298;9.056;2024-01-07T09:45:29;-0.60;99.90
47590;DHT22;33316;52.298;9.056;2024-01-07T09:47:56;-0.60;99.90
47590;DHT22;33316;52.298;9.056;2024-01-07T09:50:26;-0.60;99.90
47590;DHT22;33316;52.298;9.056;2024-01-07T09:52:57;-0.60;99.90
47590;DHT22;33316;52.298;9.056;2024-01-07T09:55:34;-0.60;99.90
47590;DHT22;33316;52.298;9.056;2024-01-07T09:58:04;-0.60;99.90
47590;DHT22;33316;52.298;9.056;2024-01-07T10:00:33;-0.60;99.90
47590;DHT22;33316;52.298;9.056;2024-01-07T10:03:00;-0.60;99.90
47590;DHT22;33316;52.298;9.056;2024-01-07T10:05:29;-0.50;99.90
47590;DHT22;33316;52.298;9.056;2024-01-07T10:07:57;-0.50;99.90
47590;DHT22;33316;52.298;9.056;2024-01-07T10:10:23;-0.50;99.90
47590;DHT22;33316;52.298;9.056;2024-01-07T10:12:53;-0.50;99.90
47590;DHT22;33316;52.298;9.056;2024-01-07T10:15:23;-0.50;99.90
47590;DHT22;33316;52.298;9.056;2024-01-07T10:18:01;-0.40;99.90
47590;DHT22;33316;52.298;9.056;2024-01-07T10:20:37;-0.50;99.90
47590;DHT22;33316;52.298;9.056;2024-01-07T10:23:05;-0.50;99.90
47590;DHT22;33316;52.298;9.056;2024-01-07T10:25:34;-0.40;99.90
47590;DHT22;33316;52.298;9.056;2024-01-07T10:28:03;-0.40;99.90
47590;DHT22;33316;52.298;9.056;2024-01-07T10:30:30;-0.40;99.90
47590;DHT22;33316;52.298;9.056;2024-01-07T10:32:58;-0.40;99.90
47590;DHT22;33316;52.298;9.056;2024-01-07T10:35:29;-0.40;99.90
47590;DHT22;33316;52.298;9.056;2024-01-07T10:38:00;-0.30;99.90
47590;DHT22;33316;52.298;9.056;2024-01-07T10:40:30;-0.30;99.90
47590;DHT22;33316;52.298;9.056;2024-01-07T10:42:58;-0.30;99.90
47590;DHT22;33316;52.298;9.056;2024-01-07T10:45:26;-0.30;99.90
47590;DHT22;33316;52.298;9.056;2024-01-07T10:47:55;-0.30;99.90
47590;DHT22;33316;52.298;9.056;2024-01-07T10:50:26;-0.30;99.90
47590;DHT22;33316;52.298;9.056;2024-01-07T10:52:58;-0.20;99.90
47590;DHT22;33316;52.298;9.056;2024-01-07T10:55:34;-0.20;99.90
47590;DHT22;33316;52.298;9.056;2024-01-07T10:58:03;-0.20;99.90
47590;DHT22;33316;52.298;9.056;2024-01-07T11:00:32;-0.20;99.90
47590;DHT22;33316;52.298;9.056;2024-01-07T11:03:04;-0.20;99.90
47590;DHT22;33316;52.298;9.056;2024-01-07T11:05:40;-0.10;99.90
47590;DHT22;33316;52.298;9.056;2024-01-07T11:08:15;-0.10;99.90
47590;DHT22;33316;52.298;9.056;2024-01-07T11:10:50;-0.10;99.90
47590;DHT22;33316;52.298;9.056;2024-01-07T11:13:32;-0.10;99.90
47590;DHT22;33316;52.298;9.056;2024-01-07T11:16:00;-0.10;99.90
47590;DHT22;33316;52.298;9.056;2024-01-07T11:18:27;0.00;99.90
47590;DHT22;33316;52.298;9.056;2024-01-07T11:20:59;0.00;99.90
47590;DHT22;33316;52.298;9.056;2024-01-07T11:23:28;0.00;99.90
47590;DHT22;33316;52.298;9.056;2024-01-07T11:25:59;0.00;99.90
47590;DHT22;33316;52.298;9.056;2024-01-07T11:28:50;0.10;99.90
47590;DHT22;33316;52.298;9.056;2024-01-07T11:31:18;0.00;99.90
47590;DHT22;33316;52.298;9.056;2024-01-07T11:33:47;0.00;99.90
47590;DHT22;33316;52.298;9.056;2024-01-07T11:36:17;0.00;99.90
47590;DHT22;33316;52.298;9.056;2024-01-07T11:38:45;0.00;99.90
47590;DHT22;33316;52.298;9.056;2024-01-07T11:41:16;0.00;99.90
47590;DHT22;33316;52.298;9.056;2024-01-07T11:43:54;0.00;99.90
47590;DHT22;33316;52.298;9.056;2024-01-07T11:46:23;0.00;99.90
47590;DHT22;33316;52.298;9.056;2024-01-07T11:48:52;0.00;99.90
47590;DHT22;33316;52.298;9.056;2024-01-07T11:51:19;0.00;99.90
47590;DHT22;33316;52.298;9.056;2024-01-07T11:53:46;0.00;99.90
47590;DHT22;33316;52.298;9.056;2024-01-07T11:56:15;0.00;99.90
47590;DHT22;33316;52.298;9.056;2024-01-07T11:58:46;0.10;99.90
47590;DHT22;33316;52.298;9.056;2024-01-07T12:01:14;0.10;99.90
47590;DHT22;33316;52.298;9.056;2024-01-07T12:03:44;0.10;99.90
47590;DHT22;33316;52.298;9.056;2024-01-07T12:06:12;0.10;99.90
47590;DHT22;33316;52.298;9.056;2024-01-07T12:08:40;0.10;99.90
47590;DHT22;33316;52.298;9.056;2024-01-07T12:11:11;0.10;99.90
47590;DHT22;33316;52.298;9.056;2024-01-07T12:13:41;0.10;99.90
47590;DHT22;33316;52.298;9.056;2024-01-07T12:16:11;0.20;99.90
47590;DHT22;33316;52.298;9.056;2024-01-07T12:18:38;0.20;99.90
47590;DHT22;33316;52.298;9.056;2024-01-07T12:21:05;0.20;99.90
47590;DHT22;33316;52.298;9.056;2024-01-07T12:23:34;0.20;99.90
47590;DHT22;33316;52.298;9.056;2024-01-07T12:26:07;0.30;99.90
47590;DHT22;33316;52.298;9.056;2024-01-07T12:28:36;0.30;99.90
47590;DHT22;33316;52.298;9.056;2024-01-07T12:31:05;0.30;99.90
47590;DHT22;33316;52.298;9.056;2024-01-07T12:33:33;0.30;99.90
47590;DHT22;33316;52.298;9.056;2024-01-07T12:36:01;0.40;99.90
47590;DHT22;33316;52.298;9.056;2024-01-07T12:38:32;0.40;99.90
47590;DHT22;33316;52.298;9.056;2024-01-07T12:41:01;0.40;99.90
47590;DHT22;33316;52.298;9.056;2024-01-07T12:43:28;0.40;99.90
47590;DHT22;33316;52.298;9.056;2024-01-07T12:45:55;0.40;99.90
47590;DHT22;33316;52.298;9.056;2024-01-07T12:48:28;0.40;99.90
47590;DHT22;33316;52.298;9.056;2024-01-07T12:50:55;0.50;99.90
47590;DHT22;33316;52.298;9.056;2024-01-07T12:53:23;0.50;99.90
47590;DHT22;33316;52.298;9.056;2024-01-07T12:55:51;0.50;99.90
47590;DHT22;33316;52.298;9.056;2024-01-07T12:58:18;0.50;99.90
47590;DHT22;33316;52.298;9.056;2024-01-07T13:00:45;0.40;99.90
47590;DHT22;33316;52.298;9.056;2024-01-07T13:03:12;0.40;99.90
47590;DHT22;33316;52.298;9.056;2024-01-07T13:05:45;0.50;99.90
47590;DHT22;33316;52.298;9.056;2024-01-07T13:08:14;0.50;99.90
47590;DHT22;33316;52.298;9.056;2024-01-07T13:10:41;0.50;99.90
47590;DHT22;33316;52.298;9.056;2024-01-07T13:13:09;0.50;99.90
47590;DHT22;33316;52.298;9.056;2024-01-07T13:15:38;0.50;99.90
47590;DHT22;33316;52.298;9.056;2024-01-07T13:18:07;0.50;99.90
47590;DHT22;33316;52.298;9.056;2024-01-07T13:20:36;0.50;99.90
47590;DHT22;33316;52.298;9.056;2024-01-07T13:23:07;0.50;99.90
47590;DHT22;33316;52.298;9.056;2024-01-07T13:25:34;0.60;99.90
47590;DHT22;33316;52.298;9.056;2024-01-07T13:28:01;0.60;99.90
47590;DHT22;33316;52.298;9.056;2024-01-07T13:30:28;0.60;99.90
47590;DHT22;33316;52.298;9.056;2024-01-07T13:32:56;0.60;99.90
47590;DHT22;33316;52.298;9.056;2024-01-07T13:35:23;0.60;99.90
47590;DHT22;33316;52.298;9.056;2024-01-07T13:37:50;0.60;99.90
47590;DHT22;33316;52.298;9.056;2024-01-07T13:40:19;0.70;99.90
47590;DHT22;33316;52.298;9.056;2024-01-07T13:42:48;0.70;99.90
47590;DHT22;33316;52.298;9.056;2024-01-07T13:45:17;0.70;99.90
47590;DHT22;33316;52.298;9.056;2024-01-07T13:47:46;0.70;99.90
47590;DHT22;33316;52.298;9.056;2024-01-07T13:50:13;0.70;99.90
47590;DHT22;33316;52.298;9.056;2024-01-07T13:52:41;0.80;99.90
47590;DHT22;33316;52.298;9.056;2024-01-07T13:55:08;0.80;99.90
47590;DHT22;33316;52.298;9.056;2024-01-07T13:57:37;0.80;99.90
47590;DHT22;33316;52.298;9.056;2024-01-07T14:00:08;0.80;99.90
47590;DHT22;33316;52.298;9.056;2024-01-07T14:02:36;0.80;99.90
47590;DHT22;33316;52.298;9.056;2024-01-07T14:05:05;0.80;99.90
47590;DHT22;33316;52.298;9.056;2024-01-07T14:07:34;0.80;99.90
47590;DHT22;33316;52.298;9.056;2024-01-07T14:10:03;0.80;99.90
47590;DHT22;33316;52.298;9.056;2024-01-07T14:12:31;0.80;99.90
47590;DHT22;33316;52.298;9.056;2024-01-07T14:15:00;0.80;99.90
47590;DHT22;33316;52.298;9.056;2024-01-07T14:17:27;0.80;99.90
47590;DHT22;33316;52.298;9.056;2024-01-07T14:19:54;0.80;99.90
47590;DHT22;33316;52.298;9.056;2024-01-07T14:22:21;0.80;99.90
47590;DHT22;33316;52.298;9.056;2024-01-07T14:24:48;0.70;99.90
47590;DHT22;33316;52.298;9.056;2024-01-07T14:27:15;0.70;99.90
47590;DHT22;33316;52.298;9.056;2024-01-07T14:29:42;0.70;99.90
47590;DHT22;33316;52.298;9.056;2024-01-07T14:32:11;0.70;99.90
47590;DHT22;33316;52.298;9.056;2024-01-07T14:34:39;0.70;99.90
47590;DHT22;33316;52.298;9.056;2024-01-07T14:37:10;0.60;99.90
47590;DHT22;33316;52.298;9.056;2024-01-07T14:39:37;0.60;99.90
47590;DHT22;33316;52.298;9.056;2024-01-07T14:42:05;0.60;99.90
47590;DHT22;33316;52.298;9.056;2024-01-07T14:44:33;0.60;99.90
47590;DHT22;33316;52.298;9.056;2024-01-07T14:47:00;0.50;99.90
47590;DHT22;33316;52.298;9.056;2024-01-07T14:49:29;0.50;99.90
47590;DHT22;33316;52.298;9.056;2024-01-07T14:51:55;0.50;99.90
47590;DHT22;33316;52.298;9.056;2024-01-07T14:54:23;0.40;99.90
47590;DHT22;33316;52.298;9.056;2024-01-07T14:56:50;0.40;99.90
47590;DHT22;33316;52.298;9.056;2024-01-07T14:59:17;0.40;99.90
47590;DHT22;33316;52.298;9.056;2024-01-07T15:01:46;0.40;99.90
47590;DHT22;33316;52.298;9.056;2024-01-07T15:04:13;0.30;99.90
47590;DHT22;33316;52.298;9.056;2024-01-07T15:06:43;0.30;99.90
47590;DHT22;33316;52.298;9.056;2024-01-07T15:09:11;0.30;99.90
47590;DHT22;33316;52.298;9.056;2024-01-07T15:11:40;0.20;99.90
47590;DHT22;33316;52.298;9.056;2024-01-07T15:14:09;0.20;99.90
47590;DHT22;33316;52.298;9.056;2024-01-07T15:16:36;0.20;99.90
47590;DHT22;33316;52.298;9.056;2024-01-07T15:19:04;0.20;99.90
47590;DHT22;33316;52.298;9.056;2024-01-07T15:21:30;0.20;99.90
47590;DHT22;33316;52.298;9.056;2024-01-07T15:23:59;0.10;99.90
47590;DHT22;33316;52.298;9.056;2024-01-07T15:26:26;0.10;99.90
47590;DHT22;33316;52.298;9.056;2024-01-07T15:28:53;0.10;99.90
47590;DHT22;33316;52.298;9.056;2024-01-07T15:31:20;0.10;99.90
47590;DHT22;33316;52.298;9.056;2024-01-07T15:33:48;0.00;99.90
47590;DHT22;33316;52.298;9.056;2024-01-07T15:36:15;0.00;99.90
47590;DHT22;33316;52.298;9.056;2024-01-07T15:38:44;0.00;99.90
47590;DHT22;33316;52.298;9.056;2024-01-07T15:41:12;0.00;99.90
47590;DHT22;33316;52.298;9.056;2024-01-07T15:43:39;0.00;99.90
47590;DHT22;33316;52.298;9.056;2024-01-07T15:46:06;0.00;99.90
47590;DHT22;33316;52.298;9.056;2024-01-07T15:48:33;0.00;99.90